Terminal Aerodrome Forecast
Issued by NWS Huntsville, AL

Home | Current Version | Previous Version | Text Only | Print | Product List | Glossary On
Versions: 1 2 3 4 5 6 7 8 9 10 11 12 13 14 15 16 17 18 19 20 21 22 23 24 25 26 27 28 29 30 31 32 33 34 35 36 37 38 39
000
FTUS44 KHUN 061350 AAA
TAFMSL
TAF AMD
KMSL 061350Z 0614/0712 25008KT P6SM BKN009
     FM061500 25007KT P6SM SCT015 BKN050
     FM061900 25007KT P6SM VCTS SCT035CB BKN050
     FM070100 20005KT P6SM SCT030
     FM070600 20003KT P6SM VCTS FEW015CB SCT030 BKN090=

USA.gov is the U.S. government's official web portal to all federal, state and local government web resources and services.